Time;durP1;ratioP1;P1;durP2;ratioP2;P2;SDS_P1;SDS_P2;PMS_P1;PMS_P2;Temp;Humidity;BMP_temperature;BMP_pressure;BME280_temperature;BME280_humidity;BME280_pressure;Samples;Min_cycle;Max_cycle;Signal;HPM_P1;HPM_P2
2023/03/18 00:00:17;;;;;;;6.43;1.00;;;11.00;99.90;;;10.22;100.00;97110.34;5042072;28;21007;-74
2023/03/18 00:02:46;;;;;;;5.22;1.02;;;11.00;99.90;;;10.12;100.00;97109.91;5044547;28;20612;-73
2023/03/18 00:05:15;;;;;;;3.78;1.00;;;10.90;99.90;;;10.12;100.00;97116.88;5025517;28;20049;-73
2023/03/18 00:07:42;;;;;;;5.88;1.25;;;10.90;99.90;;;10.14;100.00;97122.81;5041571;28;20048;-72
2023/03/18 00:10:12;;;;;;;5.60;1.48;;;10.80;99.90;;;10.02;100.00;97119.91;5036864;28;20049;-72
2023/03/18 00:12:40;;;;;;;3.63;1.30;;;10.80;99.90;;;10.08;100.00;97125.69;5041584;28;20071;-72
2023/03/18 00:15:10;;;;;;;4.63;1.25;;;;;;;10.07;100.00;97117.09;5055262;28;20124;-74
2023/03/18 00:17:39;;;;;;;6.25;1.30;;;10.80;99.90;;;10.03;100.00;97133.69;5037873;28;20820;-73
2023/03/18 00:20:08;;;;;;;4.55;1.15;;;10.80;99.90;;;10.07;100.00;97139.59;5028944;28;20160;-76
2023/03/18 00:22:37;;;;;;;5.07;1.10;;;10.70;99.90;;;9.97;100.00;97146.97;5042640;28;20494;-74
2023/03/18 00:25:07;;;;;;;4.88;1.35;;;10.70;99.90;;;9.94;100.00;97149.69;5045631;28;20549;-73
2023/03/18 00:27:35;;;;;;;5.28;1.23;;;10.70;99.90;;;9.90;100.00;97161.97;5043194;28;20141;-73
2023/03/18 00:30:04;;;;;;;4.50;1.17;;;10.60;99.90;;;9.82;100.00;97162.31;5042223;28;20410;-72
2023/03/18 00:32:33;;;;;;;7.60;1.50;;;10.50;99.90;;;9.51;100.00;97156.84;5044001;28;20048;-73
2023/03/18 00:35:02;;;;;;;5.22;1.70;;;10.40;99.90;;;9.37;100.00;97166.09;5044471;28;20053;-74
2023/03/18 00:37:32;;;;;;;6.90;1.38;;;10.30;99.90;;;9.29;100.00;97170.75;5044486;28;20056;-73
2023/03/18 00:40:06;;;;;;;6.75;1.50;;;10.20;99.90;;;9.27;100.00;97163.97;5044497;28;20071;-71
2023/03/18 00:42:38;;;;;;;4.90;1.67;;;10.10;99.90;;;9.26;100.00;97167.44;5059546;28;20051;-72
2023/03/18 00:45:09;;;;;;;5.68;1.40;;;10.00;99.90;;;9.23;100.00;97175.38;5060226;28;20041;-73
2023/03/18 00:47:37;;;;;;;6.50;1.87;;;10.00;99.90;;;9.24;100.00;97180.47;5042972;28;20044;-72
2023/03/18 00:50:07;;;;;;;8.85;1.60;;;10.00;99.90;;;9.29;100.00;97172.50;5042066;28;20519;-72
2023/03/18 00:52:36;;;;;;;3.88;1.20;;;9.90;99.90;;;9.39;100.00;97160.81;5044206;28;20056;-72
2023/03/18 00:55:05;;;;;;;7.90;1.70;;;10.00;99.90;;;9.30;100.00;97158.63;5039334;28;20045;-74
2023/03/18 00:57:32;;;;;;;5.15;1.52;;;9.90;99.90;;;9.31;100.00;97160.34;5043664;28;20102;-73
2023/03/18 01:00:00;;;;;;;3.65;1.52;;;9.90;99.90;;;9.36;100.00;97161.81;5043813;28;20049;-71
2023/03/18 01:02:28;;;;;;;5.60;1.48;;;10.00;99.90;;;9.34;100.00;97150.66;5043119;28;20037;-72
2023/03/18 01:04:55;;;;;;;7.60;1.60;;;10.00;99.90;;;9.37;100.00;97157.47;5040190;28;20518;-75
2023/03/18 01:07:23;;;;;;;7.15;1.50;;;10.00;99.90;;;9.28;100.00;97152.69;5043505;28;20128;-74
2023/03/18 01:09:51;;;;;;;5.45;1.58;;;10.00;99.90;;;9.24;100.00;97140.78;5055666;28;20087;-74
2023/03/18 01:12:18;;;;;;;9.10;1.50;;;10.00;99.90;;;9.26;100.00;97147.59;5041301;28;20060;-75
2023/03/18 01:14:45;;;;;;;6.15;1.48;;;10.00;99.90;;;9.08;100.00;97140.63;5045239;28;20040;-72
2023/03/18 01:17:13;;;;;;;4.88;1.30;;;9.90;99.90;;;8.97;100.00;97135.91;5043876;28;20161;-74
2023/03/18 01:19:41;;;;;;;4.32;1.42;;;9.90;99.90;;;8.95;100.00;97130.78;5044126;28;20052;-75
2023/03/18 01:22:08;;;;;;;6.18;1.75;;;9.80;99.90;;;9.09;100.00;97144.91;5041461;28;20451;-75
2023/03/18 01:24:35;;;;;;;6.97;1.75;;;9.70;99.90;;;9.13;100.00;97142.09;5041683;28;20061;-74
2023/03/18 01:27:03;;;;;;;7.10;1.30;;;9.60;99.90;;;9.11;100.00;97125.78;5039696;28;20057;-75
2023/03/18 01:29:30;;;;;;;5.00;1.48;;;9.70;99.90;;;9.27;100.00;97110.41;5042887;28;20088;-75
2023/03/18 01:31:56;;;;;;;5.40;1.38;;;9.70;99.90;;;9.43;100.00;97110.56;5041912;28;20049;-72
2023/03/18 01:34:23;;;;;;;4.30;1.38;;;9.90;99.90;;;9.58;100.00;97112.47;5040882;28;20095;-74
2023/03/18 01:36:51;;;;;;;4.22;1.30;;;10.00;99.90;;;9.62;100.00;97116.59;5040125;28;20049;-75
2023/03/18 01:39:18;;;;;;;7.25;1.95;;;10.10;99.90;;;9.43;100.00;97113.16;5039089;28;20095;-75
2023/03/18 01:41:45;;;;;;;6.70;1.77;;;10.00;99.90;;;9.36;100.00;97109.16;5040198;28;20084;-74
2023/03/18 01:44:16;;;;;;;6.90;1.70;;;9.90;99.90;;;9.42;100.00;97101.13;5041581;28;20059;-75
2023/03/18 01:46:45;;;;;;;4.22;1.10;;;10.00;99.90;;;9.72;100.00;97100.63;5041298;28;20464;-74
2023/03/18 01:49:23;;;;;;;5.50;1.50;;;10.10;99.90;;;9.66;100.00;97108.66;5039888;28;20487;-74
2023/03/18 01:52:01;;;;;;;5.68;1.05;;;10.30;99.90;;;9.81;100.00;97095.84;5041511;28;20586;-75
2023/03/18 01:54:35;;;;;;;5.57;1.30;;;10.40;99.90;;;9.79;100.00;97100.25;5042145;28;20049;-73
2023/03/18 01:57:02;;;;;;;5.13;1.20;;;10.40;99.90;;;9.83;100.00;97100.97;5044304;28;20041;-73
2023/03/18 01:59:34;;;;;;;4.15;1.30;;;10.40;99.90;;;10.02;100.00;97106.94;5055439;28;20132;-74
2023/03/18 02:02:05;;;;;;;3.70;1.02;;;10.50;99.90;;;9.90;100.00;97107.53;5054313;28;20499;-75
2023/03/18 02:04:43;;;;;;;7.20;1.10;;;10.60;99.90;;;9.95;100.00;97108.16;5039081;28;20041;-74
2023/03/18 02:07:26;;;;;;;5.90;1.17;;;10.50;99.90;;;9.92;100.00;97118.66;5043455;28;20049;-74
2023/03/18 02:09:56;;;;;;;4.30;1.25;;;10.60;99.90;;;9.87;100.00;97124.97;5046799;28;20516;-75
2023/03/18 02:12:28;;;;;;;6.90;1.20;;;10.60;99.90;;;9.88;100.00;97108.53;5029695;28;20128;-74
2023/03/18 02:14:56;;;;;;;3.35;1.00;;;10.50;99.90;;;9.87;100.00;97107.66;5058647;28;20057;-74
2023/03/18 02:17:29;;;;;;;5.90;1.17;;;10.60;99.90;;;9.97;100.00;97105.50;5033129;28;20107;-74
2023/03/18 02:21:00;;;;;;;4.13;1.10;;;10.60;99.90;;;9.98;100.00;97109.75;5043499;28;20049;-75
2023/03/18 02:24:00;;;;;;;5.60;0.90;;;10.60;99.90;;;10.07;100.00;97103.28;5024461;28;20198;-74
2023/03/18 02:26:59;;;;;;;3.78;1.10;;;10.60;99.90;;;10.00;100.00;97102.75;5059577;28;20506;-75
2023/03/18 02:29:36;;;;;;;5.35;1.23;;;10.70;99.90;;;10.00;100.00;97100.16;5042649;28;20045;-74
2023/03/18 02:32:05;;;;;;;5.13;1.00;;;10.70;99.90;;;9.96;100.00;97107.22;5037128;28;20134;-74
2023/03/18 02:34:35;;;;;;;8.85;1.13;;;10.70;99.90;;;9.94;100.00;97092.66;5058137;28;20051;-74
2023/03/18 02:37:02;;;;;;;3.70;0.98;;;10.70;99.90;;;10.00;100.00;97092.38;5047181;28;20053;-75
2023/03/18 02:39:30;;;;;;;2.47;0.85;;;10.70;99.90;;;9.94;100.00;97092.66;5043681;28;20053;-74
2023/03/18 02:41:57;;;;;;;6.47;1.13;;;10.60;99.90;;;9.92;100.00;97108.31;5041567;28;20076;-76
2023/03/18 02:44:24;;;;;;;4.13;1.10;;;10.60;99.90;;;9.92;100.00;97110.91;5042478;28;20041;-74
2023/03/18 02:47:16;;;;;;;4.32;1.15;;;10.60;99.90;;;9.82;100.00;97107.03;5043766;28;20056;-74
2023/03/18 02:49:43;;;;;;;4.47;1.45;;;10.40;99.90;;;9.87;100.00;97112.00;5046185;28;20533;-74
2023/03/18 02:52:10;;;;;;;4.47;1.05;;;10.50;99.90;;;9.96;100.00;97108.97;5041050;28;20492;-74
2023/03/18 02:54:37;;;;;;;4.18;1.10;;;10.50;99.90;;;10.01;100.00;97112.19;5055860;28;20053;-75
2023/03/18 02:57:05;;;;;;;2.83;1.00;;;10.50;99.90;;;9.91;100.00;97110.97;5044742;28;20048;-73
2023/03/18 02:59:32;;;;;;;5.65;0.90;;;10.50;99.90;;;10.04;100.00;97112.88;5041493;28;20045;-74
2023/03/18 03:02:00;;;;;;;4.30;1.25;;;10.60;99.90;;;9.92;100.00;97116.06;5045186;28;20437;-74
2023/03/18 03:04:27;;;;;;;3.67;1.10;;;10.50;99.90;;;9.97;100.00;97108.09;5057140;28;20045;-74
2023/03/18 03:06:56;;;;;;;3.40;1.02;;;10.50;99.90;;;10.04;100.00;97112.06;5043533;28;20055;-74
2023/03/18 03:09:23;;;;;;;5.93;1.15;;;10.60;99.90;;;10.05;100.00;97124.09;5056562;28;20053;-74
2023/03/18 03:11:50;;;;;;;4.07;1.25;;;10.60;99.90;;;10.15;100.00;97122.75;5043105;28;20057;-73
2023/03/18 03:14:17;;;;;;;6.60;1.00;;;10.60;99.90;;;9.99;100.00;97126.97;5058287;28;20570;-75
2023/03/18 03:16:44;;;;;;;5.45;1.10;;;10.60;99.90;;;10.02;100.00;97117.31;5042879;28;20079;-74
2023/03/18 03:19:11;;;;;;;4.22;1.10;;;10.60;99.90;;;10.02;100.00;97125.09;5037859;28;20041;-74
2023/03/18 03:21:38;;;;;;;3.00;0.90;;;10.60;99.90;;;10.00;100.00;97121.72;5041311;28;20140;-74
2023/03/18 03:24:07;;;;;;;4.75;1.25;;;10.60;99.90;;;9.88;100.00;97137.03;5044599;28;20041;-74
2023/03/18 03:26:35;;;;;;;3.13;0.85;;;10.50;99.90;;;9.87;100.00;97127.56;5056239;28;20159;-74
2023/03/18 03:29:05;;;;;;;3.92;1.00;;;10.50;99.90;;;10.02;100.00;97130.28;5045000;28;20044;-74
2023/03/18 03:31:33;;;;;;;6.43;2.05;;;10.50;99.90;;;9.97;100.00;97126.22;5044824;28;20045;-74
2023/03/18 03:34:01;;;;;;;3.53;1.13;;;10.60;99.90;;;10.08;100.00;97136.06;5044731;28;20052;-74
2023/03/18 03:36:28;;;;;;;3.97;1.25;;;10.60;99.90;;;9.95;100.00;97131.47;5038781;28;20048;-74
2023/03/18 03:38:55;;;;;;;3.97;1.00;;;10.60;99.90;;;10.02;100.00;97135.47;5044929;28;20053;-74
2023/03/18 03:41:22;;;;;;;3.45;0.88;;;10.60;99.90;;;10.00;100.00;97129.50;5055714;28;20074;-74
2023/03/18 03:43:49;;;;;;;6.05;1.20;;;10.60;99.90;;;10.04;100.00;97132.81;5039491;28;20053;-75
2023/03/18 03:46:19;;;;;;;3.97;1.00;;;10.60;99.90;;;10.09;100.00;97130.00;5039764;28;20416;-74
2023/03/18 03:48:46;;;;;;;2.85;0.90;;;10.60;99.90;;;10.24;100.00;97132.69;5057102;28;20107;-74
2023/03/18 03:51:15;;;;;;;5.15;1.13;;;10.60;99.90;;;10.08;100.00;97129.16;5041247;28;20092;-75
2023/03/18 03:53:44;;;;;;;3.47;0.93;;;10.60;99.90;;;10.19;100.00;97147.59;5045511;28;20045;-74
2023/03/18 03:56:16;;;;;;;6.05;0.85;;;10.60;99.90;;;10.13;100.00;97140.16;5039125;28;20057;-74
2023/03/18 03:58:44;;;;;;;4.15;1.05;;;10.70;99.90;;;10.17;100.00;97136.50;5047956;28;20098;-74
2023/03/18 04:01:12;;;;;;;3.50;1.00;;;10.70;99.90;;;10.28;100.00;97133.34;5040567;28;20076;-73
2023/03/18 04:03:39;;;;;;;3.33;0.98;;;10.80;99.90;;;10.13;100.00;97136.72;5043180;28;20051;-74
2023/03/18 04:06:06;;;;;;;5.90;1.20;;;10.80;99.90;;;10.12;100.00;97132.44;5025539;28;20053;-74
2023/03/18 04:08:33;;;;;;;4.78;0.90;;;10.70;99.90;;;10.17;100.00;97146.88;5036768;28;20049;-74
2023/03/18 04:11:02;;;;;;;5.10;1.17;;;10.80;99.90;;;10.12;100.00;97156.59;5038668;28;20136;-74
2023/03/18 04:13:30;;;;;;;5.60;1.10;;;10.70;99.90;;;10.28;100.00;97146.34;5041701;28;20049;-75
2023/03/18 04:15:56;;;;;;;5.53;0.90;;;10.70;99.90;;;10.34;100.00;97155.63;5057514;28;20048;-74
2023/03/18 04:18:24;;;;;;;5.47;1.10;;;10.70;99.90;;;10.08;100.00;97157.69;5038529;28;20073;-75
2023/03/18 04:20:51;;;;;;;3.00;0.70;;;10.70;99.90;;;10.15;100.00;97164.25;5046462;28;20411;-73
2023/03/18 04:23:19;;;;;;;2.55;0.82;;;10.70;99.90;;;10.09;100.00;97155.91;5053322;28;20048;-74
2023/03/18 04:25:46;;;;;;;4.70;0.88;;;10.70;99.90;;;10.04;100.00;97149.19;5041934;28;20049;-75
2023/03/18 04:28:13;;;;;;;5.18;0.90;;;10.70;99.90;;;10.11;100.00;97159.28;5039801;28;20055;-73
2023/03/18 04:30:40;;;;;;;3.80;0.90;;;10.70;99.90;;;10.05;100.00;97163.81;5054256;28;20072;-73
2023/03/18 04:33:08;;;;;;;3.40;0.80;;;10.70;99.90;;;10.04;100.00;97156.97;5043299;28;20410;-73
2023/03/18 04:35:36;;;;;;;3.95;0.98;;;10.60;99.90;;;9.97;100.00;97160.78;5043937;28;20512;-74
2023/03/18 04:38:03;;;;;;;5.63;1.10;;;10.60;99.90;;;10.00;100.00;97163.22;5036953;28;20114;-73
2023/03/18 04:40:31;;;;;;;23.23;1.42;;;10.60;99.90;;;9.98;100.00;97165.03;5044091;28;20047;-76
2023/03/18 04:42:58;;;;;;;4.10;0.95;;;10.60;99.90;;;10.04;100.00;97159.56;5038781;28;20420;-74
2023/03/18 04:45:25;;;;;;;5.50;1.00;;;10.60;99.90;;;9.91;100.00;97165.41;5042565;28;20057;-74
2023/03/18 04:47:53;;;;;;;3.67;0.80;;;10.60;99.90;;;10.03;100.00;97163.09;5036875;28;20495;-74
2023/03/18 04:50:20;;;;;;;5.55;0.80;;;10.50;99.90;;;9.78;100.00;97160.78;5037892;28;20124;-73
2023/03/18 04:52:47;;;;;;;3.95;0.95;;;10.50;99.90;;;9.81;100.00;97159.81;5042863;28;20053;-74
2023/03/18 04:55:19;;;;;;;5.20;0.82;;;10.40;99.90;;;9.91;100.00;97168.00;5040210;28;20059;-73
2023/03/18 04:57:47;;;;;;;5.30;1.00;;;10.40;99.90;;;9.74;100.00;97172.22;5040854;28;20674;-72
2023/03/18 05:00:20;;;;;;;4.10;0.82;;;10.40;99.90;;;9.76;100.00;97167.78;5041488;28;20045;-73
2023/03/18 05:02:48;;;;;;;4.80;1.10;;;10.40;99.90;;;9.77;100.00;97169.47;5055198;28;20067;-73
2023/03/18 05:05:15;;;;;;;5.05;0.90;;;10.40;99.90;;;9.81;100.00;97162.41;5058041;28;20045;-73
2023/03/18 05:07:42;;;;;;;4.25;1.20;;;10.40;99.90;;;9.63;100.00;97166.66;5043110;28;20056;-73
2023/03/18 05:10:10;;;;;;;4.78;0.95;;;10.40;99.90;;;9.72;100.00;97178.38;5024973;28;20045;-72
2023/03/18 05:12:37;;;;;;;3.92;0.95;;;10.30;99.90;;;9.68;100.00;97172.47;5020030;28;20057;-73
2023/03/18 05:15:06;;;;;;;6.65;1.30;;;10.30;99.90;;;9.55;100.00;97169.59;5040725;28;20139;-73
2023/03/18 05:17:33;;;;;;;2.80;0.70;;;10.40;99.90;;;9.56;100.00;97166.09;5040866;28;20055;-74
2023/03/18 05:20:00;;;;;;;4.30;0.80;;;10.30;99.90;;;9.50;100.00;97171.56;5038130;28;20049;-73
2023/03/18 05:22:27;;;;;;;4.07;1.15;;;10.30;99.90;;;9.40;100.00;97165.13;5038553;28;20056;-73
2023/03/18 05:24:54;;;;;;;4.88;1.10;;;10.20;99.90;;;9.41;100.00;97167.63;5040119;28;20124;-72
2023/03/18 05:27:22;;;;;;;5.28;1.17;;;10.20;99.90;;;9.35;100.00;97174.81;5039905;28;20407;-73
2023/03/18 05:29:49;;;;;;;8.50;1.00;;;10.10;99.90;;;9.23;100.00;97173.59;5041409;28;20084;-73
2023/03/18 05:32:16;;;;;;;4.70;1.00;;;10.10;99.90;;;9.32;100.00;97173.19;5044729;28;20219;-73
2023/03/18 05:34:43;;;;;;;5.63;1.52;;;10.00;99.90;;;9.23;100.00;97165.84;5038403;28;20414;-73
2023/03/18 05:37:15;;;;;;;3.80;1.00;;;10.00;99.90;;;9.19;100.00;97179.81;5041545;28;20041;-72
2023/03/18 05:39:42;;;;;;;3.47;1.23;;;9.90;99.90;;;9.20;100.00;97181.53;5035893;28;20500;-73
2023/03/18 05:42:11;;;;;;;3.92;0.90;;;9.90;99.90;;;9.16;100.00;97178.22;5044206;28;20049;-72
2023/03/18 05:44:39;;;;;;;6.63;1.42;;;9.80;99.90;;;9.05;100.00;97177.00;5026084;28;20129;-73
2023/03/18 05:47:07;;;;;;;4.43;1.10;;;9.70;99.90;;;9.09;100.00;97181.13;5044392;28;20962;-73
2023/03/18 05:49:35;;;;;;;5.05;1.42;;;9.70;99.90;;;9.02;100.00;97166.78;5057595;28;20057;-73
2023/03/18 05:52:02;;;;;;;3.55;1.02;;;9.70;99.90;;;9.05;100.00;97177.81;5041983;28;20052;-73
2023/03/18 05:54:30;;;;;;;7.03;1.35;;;9.60;99.90;;;9.14;100.00;97174.00;5030465;28;20064;-73
2023/03/18 05:56:57;;;;;;;3.95;0.80;;;9.70;99.90;;;9.02;100.00;97183.16;5059554;28;20064;-74
2023/03/18 05:59:24;;;;;;;3.35;1.10;;;9.60;99.90;;;8.95;100.00;97189.50;5043613;28;20050;-73
2023/03/18 06:01:52;;;;;;;5.90;1.42;;;9.60;99.90;;;8.87;100.00;97182.06;5038124;28;20639;-74
2023/03/18 06:04:19;;;;;;;5.72;0.93;;;9.60;99.90;;;8.99;100.00;97191.06;5047076;28;20049;-73
2023/03/18 06:06:48;;;;;;;4.50;1.40;;;9.50;99.90;;;8.98;100.00;97197.97;5059418;28;20092;-73
2023/03/18 06:09:16;;;;;;;8.38;1.13;;;9.60;99.90;;;9.05;100.00;97189.94;5048010;28;20099;-74
2023/03/18 06:11:44;;;;;;;5.00;0.98;;;9.60;99.90;;;9.03;100.00;97199.50;5047587;28;20571;-73
2023/03/18 06:14:12;;;;;;;3.20;0.98;;;9.60;99.90;;;9.13;100.00;97193.88;5046674;28;20045;-73
2023/03/18 06:16:43;;;;;;;3.83;1.10;;;9.70;99.90;;;9.23;100.00;97196.06;5044117;28;20156;-72
2023/03/18 06:19:10;;;;;;;7.78;1.40;;;9.70;99.90;;;9.26;100.00;97193.34;5041943;28;20049;-72
2023/03/18 06:21:39;;;;;;;3.80;0.98;;;9.70;99.90;;;9.38;100.00;97200.59;5041871;28;20045;-72
2023/03/18 06:24:07;;;;;;;4.07;1.00;;;9.80;99.90;;;9.39;100.00;97197.91;5045193;28;20063;-73
2023/03/18 06:26:34;;;;;;;3.50;0.85;;;9.80;99.90;;;9.30;100.00;97187.13;5040771;28;20483;-73
2023/03/18 06:29:02;;;;;;;5.95;0.75;;;9.80;99.90;;;9.28;100.00;97196.72;5046898;28;20414;-73
2023/03/18 06:31:31;;;;;;;5.05;1.00;;;9.80;99.90;;;9.22;100.00;97197.84;5059588;28;20060;-74
2023/03/18 06:33:58;;;;;;;3.90;0.80;;;9.80;99.90;;;9.32;100.00;97206.88;5042804;28;20045;-73
2023/03/18 06:36:27;;;;;;;5.07;1.00;;;9.80;99.90;;;9.32;100.00;97214.66;5046382;28;20056;-73
2023/03/18 06:38:54;;;;;;;4.93;1.02;;;9.80;99.90;;;9.36;100.00;97207.59;5046280;28;20131;-72
2023/03/18 06:41:22;;;;;;;3.65;0.93;;;9.90;99.90;;;9.35;100.00;97200.72;5044409;28;20104;-73
2023/03/18 06:43:50;;;;;;;3.50;0.90;;;9.90;99.90;;;9.43;100.00;97209.00;5046633;28;20510;-73
2023/03/18 06:46:17;;;;;;;6.13;1.17;;;10.00;99.90;;;9.45;100.00;97207.19;5043372;28;20041;-72
2023/03/18 06:48:45;;;;;;;5.68;2.05;;;10.10;99.90;;;9.68;100.00;97197.56;5046568;28;20045;-73
2023/03/18 06:51:12;;;;;;;7.10;1.30;;;10.10;99.90;;;9.58;100.00;97200.56;5044749;28;20521;-73
2023/03/18 06:53:40;;;;;;;5.45;1.38;;;10.10;99.90;;;9.64;100.00;97205.44;5045637;28;20068;-73
2023/03/18 06:56:14;;;;;;;5.28;2.10;;;10.10;99.90;;;9.75;100.00;97202.38;5044632;28;20683;-73
2023/03/18 06:58:45;;;;;;;9.38;1.58;;;10.10;99.90;;;9.64;100.00;97208.03;5043279;28;20072;-73
2023/03/18 07:01:12;;;;;;;3.75;0.93;;;10.10;99.90;;;9.70;100.00;97200.94;5038384;28;20113;-73
2023/03/18 07:03:40;;;;;;;6.40;0.90;;;10.20;99.90;;;9.66;100.00;97200.22;5044338;28;20068;-73
2023/03/18 07:06:09;;;;;;;2.90;0.80;;;10.20;99.90;;;9.80;100.00;97197.81;5044041;28;20045;-75
2023/03/18 07:08:37;;;;;;;3.90;1.05;;;10.30;99.90;;;10.00;100.00;97196.09;5042670;28;20155;-74
2023/03/18 07:11:06;;;;;;;3.03;0.90;;;10.40;99.90;;;10.03;100.00;97203.72;5040410;28;20155;-73
2023/03/18 07:13:33;;;;;;;7.18;1.33;;;10.40;99.90;;;10.09;100.00;97187.03;5043521;28;20132;-74
2023/03/18 07:16:00;;;;;;;3.38;0.80;;;10.50;99.90;;;10.10;100.00;97201.66;5058051;28;20060;-73
2023/03/18 07:18:28;;;;;;;4.53;1.00;;;10.70;99.90;;;10.21;100.00;97202.84;5044710;28;20064;-74
2023/03/18 07:20:55;;;;;;;9.70;1.08;;;10.80;99.90;;;10.30;100.00;97201.59;5044293;28;20045;-73
2023/03/18 07:23:23;;;;;;;5.57;1.25;;;10.90;99.90;;;10.40;100.00;97200.28;5039968;28;20495;-73
2023/03/18 07:25:50;;;;;;;5.15;1.40;;;11.00;99.90;;;10.62;100.00;97209.59;5045027;28;20483;-74
2023/03/18 07:28:18;;;;;;;3.33;0.90;;;11.00;99.90;;;10.55;100.00;97216.00;5052515;28;20057;-73
2023/03/18 07:30:48;;;;;;;6.70;1.80;;;11.00;99.90;;;10.70;100.00;97204.88;5042141;28;20471;-74
2023/03/18 07:33:16;;;;;;;5.38;1.70;;;11.00;99.90;;;10.52;100.00;97208.38;5042056;28;20060;-75
2023/03/18 07:35:43;;;;;;;6.25;1.88;;;11.00;99.90;;;10.56;100.00;97207.28;5027225;28;20568;-73
2023/03/18 07:38:11;;;;;;;5.53;1.33;;;11.10;99.90;;;10.48;100.00;97214.63;5042073;28;20141;-73
2023/03/18 07:40:38;;;;;;;3.45;1.33;;;11.00;99.90;;;10.63;100.00;97216.50;5043850;28;20575;-73
2023/03/18 07:43:06;;;;;;;4.45;1.20;;;11.00;99.90;;;10.59;100.00;97218.38;5045433;28;20087;-72
2023/03/18 07:45:33;;;;;;;4.95;1.27;;;11.20;99.90;;;10.71;100.00;97211.75;5056513;28;20053;-73
2023/03/18 07:48:00;;;;;;;2.53;0.80;;;11.20;99.90;;;10.91;100.00;97215.97;5043731;28;20053;-73
2023/03/18 07:50:27;;;;;;;3.75;1.25;;;11.30;99.90;;;11.18;100.00;97213.75;5043773;28;20061;-73
2023/03/18 07:52:54;;;;;;;4.53;1.30;;;11.50;99.90;;;11.55;100.00;97209.25;5060096;28;20155;-73
2023/03/18 07:55:21;;;;;;;6.15;1.80;;;11.80;99.90;;;12.12;100.00;97214.88;5043983;28;20085;-73
2023/03/18 07:57:48;;;;;;;4.75;1.45;;;11.90;99.90;;;12.40;100.00;97213.34;5057135;28;20547;-74
2023/03/18 08:00:17;;;;;;;2.90;0.90;;;12.00;99.90;;;12.14;100.00;97223.44;5039426;28;20057;-72
2023/03/18 08:02:47;;;;;;;2.90;0.93;;;12.30;99.90;;;12.41;100.00;97215.03;5028829;28;20553;-73
2023/03/18 08:05:14;;;;;;;7.95;1.55;;;13.00;99.90;;;12.60;100.00;97201.00;5045966;28;20102;-72
2023/03/18 08:07:42;;;;;;;7.00;1.50;;;13.40;99.10;;;12.89;100.00;97218.41;5042387;28;20040;-73
2023/03/18 08:10:11;;;;;;;3.53;0.85;;;13.70;97.90;;;12.84;100.00;97219.56;5046561;28;20123;-74
2023/03/18 08:12:38;;;;;;;4.85;1.35;;;14.40;98.20;;;13.25;100.00;97232.81;5043129;28;20060;-73
2023/03/18 08:15:21;;;;;;;3.47;0.82;;;14.40;97.00;;;13.87;100.00;97218.72;5042390;28;20056;-73
2023/03/18 08:17:49;;;;;;;3.28;1.10;;;14.70;96.40;;;14.06;100.00;97223.63;5042416;28;20041;-72
2023/03/18 08:20:17;;;;;;;3.88;1.05;;;15.40;96.10;;;13.90;100.00;97226.34;5043573;28;20107;-77
2023/03/18 08:22:44;;;;;;;4.00;0.80;;;15.20;96.00;;;13.83;100.00;97245.94;5043209;28;20041;-73
2023/03/18 08:25:12;;;;;;;4.85;1.30;;;14.90;95.10;;;13.25;100.00;97232.81;5042277;28;20045;-72
2023/03/18 08:27:39;;;;;;;9.73;1.10;;;14.80;95.50;;;12.92;100.00;97246.03;5041513;28;20051;-74
2023/03/18 08:30:08;;;;;;;4.72;1.08;;;14.10;95.30;;;12.80;100.00;97241.53;5040402;28;20056;-73
2023/03/18 08:32:36;;;;;;;6.93;1.00;;;13.60;94.80;;;12.75;100.00;97233.97;5039851;28;20060;-73
2023/03/18 08:35:05;;;;;;;2.67;0.85;;;14.00;95.10;;;13.54;100.00;97251.97;5043767;28;20048;-73
2023/03/18 08:37:32;;;;;;;5.18;1.10;;;14.10;94.70;;;14.02;100.00;97236.03;5042966;28;20049;-73
2023/03/18 08:40:02;;;;;;;5.88;0.80;;;14.10;95.00;;;14.01;100.00;97243.03;5043500;28;20060;-74
2023/03/18 08:42:29;;;;;;;3.45;0.90;;;14.00;95.40;;;14.38;100.00;97229.44;5043131;28;20056;-74
2023/03/18 08:44:58;;;;;;;5.63;1.45;;;14.20;94.90;;;13.92;100.00;97224.50;5046162;28;20060;-75
2023/03/18 08:47:25;;;;;;;11.63;1.20;;;14.60;94.30;;;13.29;100.00;97233.50;5043667;28;20075;-73
2023/03/18 08:49:52;;;;;;;3.25;0.88;;;14.60;93.70;;;14.34;100.00;97234.00;5045298;28;20072;-73
2023/03/18 08:52:18;;;;;;;6.60;2.45;;;14.40;93.60;;;14.56;100.00;97235.31;5029625;28;20639;-73
2023/03/18 08:54:46;;;;;;;8.23;2.70;;;14.50;93.60;;;13.71;100.00;97226.66;5044757;28;20465;-73
2023/03/18 08:57:14;;;;;;;6.63;1.88;;;14.90;93.60;;;14.22;100.00;97240.84;5046639;28;20081;-73
2023/03/18 08:59:41;;;;;;;3.72;0.90;;;15.30;93.80;;;14.15;100.00;97247.38;5024761;28;20080;-73
2023/03/18 09:02:15;;;;;;;3.08;1.13;;;15.60;93.10;;;13.80;100.00;97239.13;5043501;28;20150;-73
2023/03/18 09:04:43;;;;;;;3.33;1.40;;;15.10;92.40;;;14.06;100.00;97239.31;5042735;28;20073;-74
2023/03/18 09:07:12;;;;;;;5.32;1.20;;;14.50;93.00;;;13.52;100.00;97242.56;5043570;28;20045;-73
2023/03/18 09:09:39;;;;;;;5.60;0.90;;;13.90;93.30;;;12.75;100.00;97227.00;5043071;28;20514;-73
2023/03/18 09:12:11;;;;;;;3.92;1.20;;;13.80;93.70;;;13.37;100.00;97245.16;5040693;28;20220;-73
2023/03/18 09:14:41;;;;;;;3.67;0.93;;;13.90;93.90;;;14.22;100.00;97235.63;5039327;28;20056;-73
2023/03/18 09:17:09;;;;;;;3.67;1.00;;;14.20;94.00;;;14.68;100.00;97229.28;5048965;28;20521;-73
2023/03/18 09:19:36;;;;;;;3.33;0.80;;;14.80;95.10;;;14.26;99.73;97217.19;5043324;28;20049;-74
2023/03/18 09:22:03;;;;;;;3.92;1.08;;;14.90;94.60;;;14.17;100.00;97223.81;5045960;28;20041;-73
2023/03/18 09:24:30;;;;;;;4.05;0.90;;;14.90;94.30;;;13.74;100.00;97224.69;5061144;28;20077;-76
2023/03/18 09:26:59;;;;;;;3.60;0.85;;;;;;;14.23;100.00;97216.44;5047245;28;20586;-73
2023/03/18 09:29:27;;;;;;;5.30;1.00;;;14.60;93.30;;;14.37;100.00;97227.78;5047184;28;20175;-74
2023/03/18 09:31:54;;;;;;;5.28;1.27;;;14.40;94.00;;;14.36;100.00;97232.13;5047399;28;20132;-74
2023/03/18 09:34:22;;;;;;;4.10;1.08;;;14.70;94.30;;;14.43;100.00;97227.38;5045947;28;20050;-75
2023/03/18 09:36:52;;;;;;;5.40;1.27;;;14.70;94.20;;;14.92;100.00;97224.25;5047093;28;20131;-74
2023/03/18 09:39:20;;;;;;;4.53;0.90;;;14.90;93.90;;;14.76;100.00;97234.03;5048982;28;20040;-74
2023/03/18 09:42:14;;;;;;;5.10;1.13;;;14.70;94.90;;;14.04;100.00;97228.94;5047177;28;20051;-74
2023/03/18 09:44:42;;;;;;;5.13;1.20;;;14.60;94.50;;;13.45;100.00;97223.00;5043523;28;20049;-75
2023/03/18 09:47:38;;;;;;;5.07;0.98;;;14.40;94.40;;;13.78;100.00;97230.56;5031336;28;20077;-74
2023/03/18 09:50:31;;;;;;;5.00;1.00;;;14.30;94.00;;;13.91;100.00;97223.66;5042655;28;20055;-74
2023/03/18 09:53:09;;;;;;;3.10;0.88;;;14.10;95.20;;;13.70;100.00;97235.41;5044378;28;20041;-75
2023/03/18 09:55:48;;;;;;;3.97;1.08;;;13.90;94.90;;;13.54;100.00;97227.66;5048772;28;20059;-75
2023/03/18 09:58:41;;;;;;;3.60;0.90;;;13.80;94.60;;;13.58;100.00;97231.75;5058618;28;20068;-76
2023/03/18 10:01:12;;;;;;;5.82;0.70;;;14.20;94.60;;;13.76;100.00;97222.00;5046473;28;20064;-74
2023/03/18 10:04:02;;;;;;;3.53;0.70;;;14.50;94.50;;;13.97;100.00;97228.47;5048964;28;20132;-74
2023/03/18 10:06:30;;;;;;;2.42;0.80;;;;;;;14.27;100.00;97222.28;5047496;28;20712;-75
2023/03/18 10:09:07;;;;;;;4.18;1.00;;;14.90;94.80;;;14.20;100.00;97228.81;5060873;28;20483;-75
2023/03/18 10:11:50;;;;;;;5.10;1.15;;;14.80;94.00;;;14.16;100.00;97215.16;5045418;28;20072;-74
2023/03/18 10:14:25;;;;;;;4.95;0.90;;;14.50;94.50;;;13.96;100.00;97231.22;5045471;28;20128;-79
2023/03/18 10:17:26;;;;;;;3.60;0.70;;;14.60;94.20;;;14.17;100.00;97226.41;5045485;28;20051;-77
2023/03/18 10:19:58;;;;;;;4.50;1.10;;;14.90;95.30;;;13.60;100.00;97237.72;5046047;28;20223;-74
2023/03/18 10:22:59;;;;;;;2.63;0.87;;;14.60;94.20;;;13.88;100.00;97230.84;5044992;28;20075;-74
2023/03/18 10:25:41;;;;;;;4.45;0.90;;;14.40;95.20;;;13.99;100.00;97231.84;5041666;28;20111;-74
2023/03/18 10:28:33;;;;;;;5.68;0.88;;;14.50;95.50;;;14.41;100.00;97226.63;5042372;28;20055;-75